createdAt,value
2022-12-01T16:25:30.093Z,12.90
2022-12-01T16:27:57.847Z,17.65
2022-12-01T16:30:30.243Z,15.55
2022-12-01T16:33:15.408Z,15.43
2022-12-01T16:35:42.154Z,19.58
2022-12-01T16:38:23.051Z,17.98
2022-12-01T16:40:54.952Z,15.80
2022-12-01T16:43:23.925Z,16.55
2022-12-01T16:46:04.065Z,16.65
2022-12-01T16:48:31.548Z,14.30
2022-12-01T16:51:02.466Z,14.07
2022-12-01T16:53:29.085Z,16.52
2022-12-01T16:55:57.949Z,16.42
2022-12-01T16:58:24.765Z,15.43
2022-12-01T17:00:55.319Z,14.52
2022-12-01T17:03:27.115Z,14.88
2022-12-01T17:05:54.510Z,17.23
2022-12-01T17:08:21.895Z,16.80
2022-12-01T17:10:50.325Z,17.85
2022-12-01T17:13:17.723Z,16.23
2022-12-01T17:15:46.472Z,16.17
2022-12-01T17:18:14.309Z,14.57
2022-12-01T17:20:40.958Z,17.58
2022-12-01T17:23:07.833Z,16.50
2022-12-01T17:25:34.773Z,18.30
2022-12-01T17:28:01.342Z,22.42
2022-12-01T17:30:28.150Z,15.20
2022-12-01T17:32:54.676Z,20.92
2022-12-01T17:35:21.240Z,21.67
2022-12-01T17:37:47.897Z,22.15
2022-12-01T17:40:14.817Z,18.77
2022-12-01T17:42:45.558Z,18.95
2022-12-01T17:45:17.507Z,23.45
2022-12-01T17:47:44.093Z,24.92
2022-12-01T17:50:11.196Z,19.75
2022-12-01T17:52:37.899Z,19.35
2022-12-01T17:55:04.919Z,19.85
2022-12-01T17:57:31.475Z,18.27
2022-12-01T17:59:58.132Z,19.33
2022-12-01T18:02:24.746Z,18.63
2022-12-01T18:04:51.750Z,18.55
2022-12-01T18:07:18.793Z,16.52
2022-12-01T18:09:45.462Z,22.98
2022-12-01T18:12:12.076Z,19.17
2022-12-01T18:14:38.681Z,21.67
2022-12-01T18:17:05.941Z,16.85
2022-12-01T18:19:32.721Z,19.65
2022-12-01T18:21:59.690Z,16.58
2022-12-01T18:24:26.231Z,17.50
2022-12-01T18:26:54.547Z,20.17
2022-12-01T18:29:26.123Z,18.92
2022-12-01T18:31:56.982Z,15.93
2022-12-01T18:34:23.874Z,14.63
2022-12-01T18:36:50.707Z,20.55
2022-12-01T18:39:17.532Z,19.40
2022-12-01T18:41:44.311Z,15.75
2022-12-01T18:44:10.970Z,14.65
2022-12-01T18:46:37.693Z,19.10
2022-12-01T18:49:05.105Z,15.40
2022-12-01T18:51:36.657Z,17.23
2022-12-01T18:54:04.931Z,20.85
2022-12-01T18:56:32.378Z,15.85
2022-12-01T18:59:05.300Z,17.15
2022-12-01T19:01:36.091Z,16.23
2022-12-01T19:04:03.627Z,19.33
2022-12-01T19:06:32.368Z,19.15
2022-12-01T19:09:01.349Z,13.77
2022-12-01T19:11:28.718Z,16.63
2022-12-01T19:13:56.461Z,16.60
2022-12-01T19:16:23.205Z,20.95
2022-12-01T19:18:50.005Z,16.50
2022-12-01T19:21:18.796Z,18.73
2022-12-01T19:23:46.586Z,17.05
2022-12-01T19:26:16.335Z,16.08
2022-12-01T19:28:45.552Z,17.27
2022-12-01T19:31:14.872Z,18.63
2022-12-01T19:33:41.637Z,15.73
2022-12-01T19:36:11.544Z,14.43
2022-12-01T19:38:38.663Z,18.13
2022-12-01T19:41:05.946Z,16.33
2022-12-01T19:43:36.584Z,18.40
2022-12-01T19:46:11.673Z,19.27
2022-12-01T19:48:38.511Z,15.15
2022-12-01T19:51:05.705Z,15.68
2022-12-01T19:53:34.112Z,18.65
2022-12-01T19:56:05.304Z,19.10
2022-12-01T19:58:35.257Z,16.65
2022-12-01T20:01:06.224Z,16.08
2022-12-01T20:03:33.434Z,16.55
2022-12-01T20:06:19.911Z,13.50
2022-12-01T20:08:46.791Z,17.73
2022-12-01T20:11:14.565Z,17.33
2022-12-01T20:13:42.998Z,23.30
2022-12-01T20:16:13.358Z,17.63
2022-12-01T20:18:41.015Z,13.98
2022-12-01T20:21:22.047Z,15.80
2022-12-01T20:24:20.233Z,15.23
2022-12-01T20:26:50.353Z,20.63
2022-12-01T20:29:26.414Z,17.75
2022-12-01T20:31:55.318Z,22.48
2022-12-01T20:34:28.401Z,30.08
2022-12-01T20:36:56.107Z,35.45
2022-12-01T20:39:23.350Z,26.63
2022-12-01T20:41:52.252Z,32.75
2022-12-01T20:44:19.519Z,22.15
2022-12-01T20:46:47.429Z,24.63
2022-12-01T20:49:15.841Z,18.55
2022-12-01T20:51:42.671Z,13.45
2022-12-01T20:54:29.056Z,15.68
2022-12-01T20:56:56.762Z,13.55
2022-12-01T20:59:23.452Z,17.13
2022-12-01T21:01:50.078Z,18.35
2022-12-01T21:04:17.298Z,15.50
2022-12-01T21:06:43.883Z,11.40
2022-12-01T21:09:11.546Z,15.27
2022-12-01T21:12:04.672Z,12.05
2022-12-01T21:14:48.728Z,14.95
2022-12-01T21:17:23.427Z,13.00
2022-12-01T21:20:01.566Z,13.00
2022-12-01T21:22:28.359Z,12.23
2022-12-01T21:25:06.124Z,12.25
2022-12-01T21:27:32.715Z,13.98
2022-12-01T21:29:59.288Z,14.60
2022-12-01T21:32:31.467Z,11.05
2022-12-01T21:35:07.755Z,11.23
2022-12-01T21:37:34.290Z,14.32
2022-12-01T21:40:00.832Z,11.50
2022-12-01T21:42:30.588Z,15.73
2022-12-01T21:44:57.665Z,14.57
2022-12-01T21:47:29.853Z,13.48
2022-12-01T21:49:57.920Z,13.18
2022-12-01T21:52:30.184Z,12.98
2022-12-01T21:55:09.171Z,16.63
2022-12-01T21:57:44.696Z,14.48
2022-12-01T22:00:32.819Z,14.23
2022-12-01T22:03:08.674Z,11.57
2022-12-01T22:05:39.445Z,14.63
2022-12-01T22:08:12.013Z,13.40
2022-12-01T22:11:12.763Z,10.43
2022-12-01T22:13:39.892Z,12.00
2022-12-01T22:16:21.823Z,13.80
2022-12-01T22:18:54.855Z,12.75
2022-12-01T22:21:37.006Z,10.80
2022-12-01T22:24:20.962Z,12.70
2022-12-01T22:27:17.838Z,13.70
2022-12-01T22:29:46.749Z,12.88
2022-12-01T22:32:13.196Z,13.38
2022-12-01T22:34:42.535Z,14.73
2022-12-01T22:37:23.931Z,13.70
2022-12-01T22:39:54.767Z,16.05
2022-12-01T22:42:33.519Z,18.33
2022-12-01T22:45:14.700Z,10.57
2022-12-01T22:50:26.652Z,13.00
2022-12-01T22:52:58.029Z,15.02
2022-12-01T22:55:24.583Z,10.40
2022-12-01T22:57:51.330Z,12.70
2022-12-01T23:00:21.706Z,14.85
2022-12-01T23:02:49.678Z,12.27
2022-12-01T23:05:24.160Z,14.73
2022-12-01T23:07:51.646Z,12.88
2022-12-01T23:10:28.441Z,10.52
2022-12-01T23:12:57.179Z,12.48
2022-12-01T23:15:32.232Z,10.73
2022-12-01T23:18:16.332Z,9.50
2022-12-01T23:20:44.865Z,13.38
2022-12-01T23:23:15.165Z,10.65
2022-12-01T23:25:42.530Z,13.07
2022-12-01T23:28:10.598Z,8.75
2022-12-01T23:30:39.730Z,19.10
2022-12-01T23:33:14.868Z,10.38
2022-12-01T23:35:45.258Z,9.73
2022-12-01T23:38:16.419Z,8.95
2022-12-01T23:43:21.725Z,9.77
2022-12-01T23:45:50.871Z,9.73
2022-12-01T23:48:33.902Z,10.65
2022-12-01T23:51:00.849Z,12.40
2022-12-01T23:53:30.088Z,11.55
2022-12-01T23:56:01.584Z,14.43
2022-12-01T23:58:28.311Z,11.75
